Carter Lake, Iowa
Current Conditions -  °F | °C
As of 10:52 AM on Thursday 30 Oct 2014 (Local Time) from KOMA Reporting Station
Few Clouds Few Clouds  
Wind Chill: 55°   Ceiling: Unl
Heat Index: 55°   Visibility: 10mi
Dew Point: 37°   Wind: 14mph
Humidity: 51%   Direction: 350°N
Pressure: 30.06"   Gusts: NA
Location:  41.29°N, 95.92°W
Report Text: KOMA 301552Z 35012KT 10SM FEW100 FEW130 13/03 A3006 RMK AO2 SLP181 T01280028
Loading
Personal Weather Stations






























Interactive Weather Map
Tropical Storm Tracking
New forecast layout! Learn more

10-Day Weather Forecast

Advertisements
Track Severe Weather on mobile